createdAt,value
2023-03-31T00:03:03.917Z,13.32
2023-03-31T00:06:58.870Z,13.28
2023-03-31T00:10:48.024Z,13.18
2023-03-31T00:14:37.375Z,13.20
2023-03-31T00:18:28.158Z,13.16
2023-03-31T00:22:18.132Z,13.20
2023-03-31T00:26:08.621Z,13.21
2023-03-31T00:29:58.547Z,13.14
2023-03-31T00:33:47.754Z,13.14
2023-03-31T00:37:37.988Z,13.15
2023-03-31T00:41:24.431Z,13.12
2023-03-31T00:45:07.812Z,13.10
2023-03-31T00:49:06.714Z,13.04
2023-03-31T00:52:57.476Z,12.96
2023-03-31T01:08:57.244Z,12.75
2023-03-31T01:12:45.002Z,12.72
2023-03-31T01:16:32.539Z,12.64
2023-03-31T01:20:22.829Z,12.65
2023-03-31T01:24:13.952Z,12.64
2023-03-31T01:36:55.827Z,12.57
2023-03-31T01:40:57.091Z,12.57
2023-03-31T01:44:58.423Z,12.62
2023-03-31T01:57:09.509Z,12.63
2023-03-31T02:01:07.612Z,12.63
2023-03-31T02:13:02.650Z,12.55
2023-03-31T02:16:51.928Z,12.53
2023-03-31T02:20:40.999Z,12.48
2023-03-31T02:24:30.049Z,12.45
2023-03-31T02:28:24.864Z,12.42
2023-03-31T02:32:26.008Z,12.39
2023-03-31T02:36:15.406Z,12.37
2023-03-31T02:40:06.161Z,12.35
2023-03-31T02:43:55.287Z,12.31
2023-03-31T03:00:22.810Z,12.27
2023-03-31T03:04:13.452Z,12.32
2023-03-31T03:08:26.657Z,12.35
2023-03-31T03:20:35.564Z,12.38
2023-03-31T03:24:24.957Z,12.28
2023-03-31T03:28:13.933Z,12.23
2023-03-31T03:32:03.037Z,12.30
2023-03-31T03:47:58.382Z,12.43
2023-03-31T03:51:46.040Z,12.36
2023-03-31T03:56:03.762Z,12.40
2023-03-31T03:59:52.604Z,12.35
2023-03-31T04:03:41.851Z,12.30
2023-03-31T04:07:29.572Z,12.27
2023-03-31T04:11:09.117Z,12.32
2023-03-31T04:14:47.911Z,12.34
2023-03-31T04:18:25.742Z,12.35
2023-03-31T04:21:34.998Z,12.37
2023-03-31T04:24:58.673Z,12.36
2023-03-31T04:28:47.622Z,12.37
2023-03-31T04:32:31.567Z,12.43
2023-03-31T04:35:20.745Z,12.39
2023-03-31T04:38:33.994Z,12.39
2023-03-31T04:41:45.691Z,12.47
2023-03-31T04:45:14.518Z,12.50
2023-03-31T04:48:34.745Z,12.52
2023-03-31T04:51:53.175Z,12.49
2023-03-31T04:54:51.748Z,12.48
2023-03-31T04:58:24.982Z,12.47
2023-03-31T05:01:27.713Z,12.47
2023-03-31T05:04:26.763Z,12.46
2023-03-31T05:07:41.608Z,12.47
2023-03-31T05:11:20.723Z,12.45
2023-03-31T05:14:45.805Z,12.44
2023-03-31T05:18:05.018Z,12.44
2023-03-31T05:21:48.469Z,12.46
2023-03-31T05:25:27.572Z,12.47
2023-03-31T05:29:17.585Z,12.59
2023-03-31T05:32:54.218Z,12.68
2023-03-31T06:01:42.797Z,13.71
2023-03-31T06:05:08.259Z,12.95
2023-03-31T06:08:01.342Z,12.60
2023-03-31T06:11:38.998Z,13.03
2023-03-31T06:15:27.025Z,13.52
2023-03-31T06:19:14.984Z,13.89
2023-03-31T06:23:01.697Z,14.14
2023-03-31T06:26:50.272Z,14.29
2023-03-31T06:30:37.911Z,13.56
2023-03-31T06:34:14.214Z,12.91
2023-03-31T06:37:56.992Z,12.82
2023-03-31T06:40:43.832Z,13.40
2023-03-31T06:43:23.415Z,13.68
2023-03-31T06:46:03.758Z,13.97
2023-03-31T06:49:36.217Z,14.24
2023-03-31T06:53:03.413Z,14.46
2023-03-31T06:56:33.008Z,13.89
2023-03-31T07:00:22.361Z,13.31
2023-03-31T07:04:10.934Z,13.30
2023-03-31T07:07:38.490Z,13.95
2023-03-31T07:11:26.512Z,14.40
2023-03-31T07:14:53.852Z,14.62
2023-03-31T07:18:42.485Z,14.14
2023-03-31T07:36:44.763Z,14.47
2023-03-31T07:40:24.423Z,14.16
2023-03-31T07:43:15.928Z,13.74
2023-03-31T07:46:03.339Z,13.45
2023-03-31T07:48:37.551Z,13.34
2023-03-31T07:52:08.829Z,13.78
2023-03-31T07:55:57.935Z,14.48
2023-03-31T07:59:47.054Z,15.01
2023-03-31T08:03:09.665Z,14.97
2023-03-31T08:06:48.871Z,14.43
2023-03-31T08:10:17.028Z,14.13
2023-03-31T08:13:37.230Z,14.01
2023-03-31T08:17:15.348Z,13.95
2023-03-31T08:21:02.133Z,13.95
2023-03-31T08:35:29.505Z,14.65
2023-03-31T08:39:07.443Z,14.54
2023-03-31T08:42:42.312Z,14.42
2023-03-31T08:45:56.491Z,14.41
2023-03-31T08:49:01.371Z,14.49
2023-03-31T08:52:39.336Z,14.49
2023-03-31T08:56:24.414Z,14.51
2023-03-31T08:59:55.780Z,14.66
2023-03-31T09:03:22.864Z,14.79
2023-03-31T09:06:56.831Z,14.75
2023-03-31T09:25:13.762Z,15.10
2023-03-31T09:28:41.247Z,15.36
2023-03-31T09:32:09.233Z,15.49
2023-03-31T09:35:58.494Z,15.48
2023-03-31T09:39:21.619Z,15.59
2023-03-31T09:42:07.458Z,15.65
2023-03-31T09:45:01.139Z,15.68
2023-03-31T09:47:46.357Z,15.74
2023-03-31T09:51:37.901Z,15.75
2023-03-31T09:55:07.801Z,15.89
2023-03-31T09:58:35.806Z,16.05
2023-03-31T10:12:09.663Z,16.38
2023-03-31T10:30:23.795Z,16.63
2023-03-31T10:34:13.149Z,16.44
2023-03-31T10:37:41.758Z,16.31
2023-03-31T10:41:16.527Z,16.30
2023-03-31T10:59:08.412Z,15.47
2023-03-31T11:07:14.396Z,16.23
2023-03-31T11:10:25.967Z,16.26
2023-03-31T11:14:28.731Z,16.21
2023-03-31T11:38:00.758Z,18.95
2023-03-31T11:41:37.180Z,18.42
2023-03-31T11:45:23.364Z,17.81
2023-03-31T11:49:16.808Z,17.75
2023-03-31T12:03:53.622Z,20.42
2023-03-31T12:07:35.838Z,20.69
2023-03-31T12:10:52.927Z,20.45
2023-03-31T12:14:34.314Z,20.02
2023-03-31T12:17:55.273Z,19.44
2023-03-31T12:21:29.708Z,18.84
2023-03-31T12:25:02.421Z,18.14
2023-03-31T12:28:34.309Z,17.53
2023-03-31T12:32:03.164Z,17.02
2023-03-31T12:51:30.921Z,15.51
2023-03-31T12:55:17.987Z,15.44
2023-03-31T12:59:25.748Z,15.31
2023-03-31T13:03:04.507Z,15.13
2023-03-31T13:07:31.576Z,14.95
2023-03-31T13:11:32.577Z,14.81
2023-03-31T13:19:16.497Z,14.48
2023-03-31T13:37:51.021Z,13.85
2023-03-31T13:41:31.633Z,13.53
2023-03-31T13:45:11.622Z,13.39
2023-03-31T13:52:00.598Z,14.62
2023-03-31T13:55:18.792Z,14.23
2023-03-31T13:59:05.950Z,13.96
2023-03-31T14:14:31.794Z,13.68
2023-03-31T14:17:52.023Z,13.70
2023-03-31T14:21:30.100Z,13.73
2023-03-31T14:25:17.503Z,13.78
2023-03-31T14:28:59.065Z,13.80
2023-03-31T14:32:20.238Z,13.80
2023-03-31T14:35:08.697Z,13.80
2023-03-31T14:37:43.755Z,13.81
2023-03-31T14:54:57.470Z,13.90
2023-03-31T14:58:39.018Z,13.88
2023-03-31T15:02:21.483Z,13.84
2023-03-31T15:06:09.582Z,13.79
2023-03-31T15:09:32.216Z,13.77
2023-03-31T15:12:55.905Z,13.77
2023-03-31T15:16:21.661Z,13.78
2023-03-31T15:20:00.209Z,13.80
2023-03-31T15:24:04.128Z,13.85
2023-03-31T15:27:58.919Z,13.89
2023-03-31T15:45:35.949Z,14.09
2023-03-31T15:49:15.862Z,14.21
2023-03-31T15:52:05.247Z,14.29
2023-03-31T15:56:05.106Z,14.34
2023-03-31T15:59:56.419Z,14.34
2023-03-31T16:03:34.805Z,14.26
2023-03-31T16:07:04.201Z,14.16
2023-03-31T16:10:51.576Z,14.03
2023-03-31T16:25:42.932Z,13.70
2023-03-31T16:29:10.003Z,13.66
2023-03-31T16:32:53.513Z,13.63
2023-03-31T16:36:27.372Z,13.61
2023-03-31T16:39:48.271Z,13.58
2023-03-31T16:43:27.584Z,13.55
2023-03-31T16:47:17.512Z,13.54
2023-03-31T16:50:48.075Z,13.51
2023-03-31T16:54:36.020Z,13.50
2023-03-31T16:58:23.788Z,13.48
2023-03-31T17:02:14.062Z,13.50
2023-03-31T17:05:24.783Z,13.51
2023-03-31T17:08:39.794Z,13.47
2023-03-31T17:11:56.304Z,13.40
2023-03-31T17:15:41.854Z,13.33
2023-03-31T17:31:20.186Z,13.20
2023-03-31T17:35:09.462Z,13.24
2023-03-31T17:39:01.735Z,13.33
2023-03-31T17:50:57.152Z,13.68
2023-03-31T17:54:49.423Z,13.74
2023-03-31T18:06:55.789Z,13.70
2023-03-31T18:10:43.306Z,13.70
2023-03-31T18:14:31.283Z,13.67
2023-03-31T18:18:40.828Z,13.61
2023-03-31T18:22:30.041Z,13.58
2023-03-31T18:26:08.779Z,13.59
2023-03-31T18:29:58.112Z,13.62
2023-03-31T18:33:46.942Z,13.64
2023-03-31T18:37:37.303Z,13.87
2023-03-31T18:41:29.195Z,14.70
2023-03-31T19:00:52.552Z,13.93
2023-03-31T19:04:42.136Z,14.71
2023-03-31T19:08:31.082Z,15.25
2023-03-31T19:12:20.210Z,14.94
2023-03-31T19:16:10.402Z,14.41
2023-03-31T19:20:00.596Z,14.04
2023-03-31T19:46:52.830Z,14.11
2023-03-31T19:50:41.607Z,13.43
2023-03-31T19:54:30.073Z,12.93
2023-03-31T20:02:10.006Z,12.44
2023-03-31T20:05:21.921Z,12.30
2023-03-31T20:09:10.930Z,12.24
2023-03-31T20:12:54.391Z,12.14
2023-03-31T20:16:38.042Z,12.14
2023-03-31T20:20:26.145Z,12.16
2023-03-31T20:23:08.088Z,12.24
2023-03-31T20:26:36.849Z,12.28
2023-03-31T20:30:26.421Z,12.34
2023-03-31T20:34:15.376Z,12.44
2023-03-31T20:38:04.337Z,12.45
2023-03-31T20:41:53.430Z,12.55
2023-03-31T20:45:25.536Z,12.63
2023-03-31T20:49:14.293Z,12.76
2023-03-31T20:53:03.593Z,12.87
2023-03-31T20:56:53.397Z,13.06
2023-03-31T21:00:07.356Z,13.17
2023-03-31T21:03:56.601Z,13.23
2023-03-31T21:07:39.185Z,13.23
2023-03-31T21:11:29.154Z,13.19
2023-03-31T21:34:41.137Z,13.05
2023-03-31T21:38:30.341Z,12.17
2023-03-31T21:42:19.354Z,11.77
2023-03-31T21:46:08.674Z,12.16
2023-03-31T21:49:57.673Z,12.41
2023-03-31T21:53:46.645Z,12.63
2023-03-31T21:57:34.388Z,12.79
2023-03-31T22:01:23.577Z,12.84
2023-03-31T22:05:16.793Z,12.85
2023-03-31T22:08:52.140Z,12.88
2023-03-31T22:12:41.107Z,12.90
2023-03-31T22:16:30.322Z,12.95
2023-03-31T22:20:19.644Z,12.91
2023-03-31T22:24:08.817Z,12.89
2023-03-31T22:27:57.929Z,12.93
2023-03-31T22:31:48.984Z,12.90
2023-03-31T22:35:39.448Z,12.90
2023-03-31T22:39:09.006Z,12.88
2023-03-31T22:42:20.010Z,12.93
2023-03-31T22:46:09.664Z,12.93
2023-03-31T22:49:59.405Z,12.93
2023-03-31T22:53:29.204Z,12.91
2023-03-31T22:57:18.081Z,12.85
2023-03-31T23:01:07.514Z,12.86
2023-03-31T23:04:56.446Z,12.74
2023-03-31T23:08:45.906Z,12.71
2023-03-31T23:12:34.958Z,12.77
2023-03-31T23:16:24.032Z,12.77
2023-03-31T23:20:12.925Z,12.79
2023-03-31T23:24:01.904Z,12.75
2023-03-31T23:27:51.024Z,12.77
2023-03-31T23:31:40.376Z,12.75
2023-03-31T23:35:29.545Z,12.74
2023-03-31T23:39:18.904Z,12.70
2023-03-31T23:42:57.697Z,12.66
